createdAt,value
2018-05-12T00:01:20.323Z,9.80
2018-05-12T00:03:48.215Z,9.80
2018-05-12T00:06:16.150Z,9.80
2018-05-12T00:08:44.094Z,9.90
2018-05-12T00:11:12.029Z,10.00
2018-05-12T00:13:39.909Z,10.00
2018-05-12T00:16:07.809Z,9.90
2018-05-12T00:18:35.756Z,9.90
2018-05-12T00:21:03.686Z,9.80
2018-05-12T00:23:32.385Z,9.80
2018-05-12T00:26:00.306Z,9.80
2018-05-12T00:28:28.250Z,9.80
2018-05-12T00:30:56.129Z,9.80
2018-05-12T00:33:24.071Z,9.80
2018-05-12T00:35:52.012Z,9.60
2018-05-12T00:38:20.725Z,9.40
2018-05-12T00:40:48.602Z,9.30
2018-05-12T00:43:16.541Z,9.40
2018-05-12T00:45:45.190Z,9.30
2018-05-12T00:48:13.132Z,9.20
2018-05-12T00:50:41.776Z,9.10
2018-05-12T00:53:10.481Z,9.10
2018-05-12T00:55:38.376Z,9.10
2018-05-12T00:58:06.323Z,9.20
2018-05-12T01:00:34.596Z,9.10
2018-05-12T01:03:02.574Z,9.00
2018-05-12T01:05:30.462Z,8.90
2018-05-12T01:07:58.426Z,8.90
2018-05-12T01:10:26.302Z,8.90
2018-05-12T01:12:54.198Z,8.90
2018-05-12T01:15:22.185Z,9.00
2018-05-12T01:17:50.067Z,9.10
2018-05-12T01:20:18.767Z,9.00
2018-05-12T01:22:46.701Z,9.00
2018-05-12T01:25:14.642Z,8.90
2018-05-12T01:27:43.346Z,8.90
2018-05-12T01:30:11.289Z,8.90
2018-05-12T01:32:39.183Z,8.80
2018-05-12T01:35:07.125Z,8.70
2018-05-12T01:37:35.014Z,8.70
2018-05-12T01:40:02.985Z,8.70
2018-05-12T01:42:30.881Z,8.70
2018-05-12T01:44:58.831Z,8.60
2018-05-12T01:47:26.726Z,8.70
2018-05-12T01:49:55.430Z,8.70
2018-05-12T01:52:24.085Z,8.60
2018-05-12T01:54:52.035Z,8.60
2018-05-12T01:57:19.922Z,8.70
2018-05-12T01:59:47.884Z,8.50
2018-05-12T02:02:15.766Z,8.40
2018-05-12T02:04:43.643Z,8.30
2018-05-12T02:07:11.582Z,8.30
2018-05-12T02:09:39.479Z,8.30
2018-05-12T02:12:07.421Z,8.30
2018-05-12T02:14:35.343Z,8.30
2018-05-12T02:17:03.288Z,8.30
2018-05-12T02:19:31.245Z,8.10
2018-05-12T02:21:59.208Z,8.00
2018-05-12T02:24:27.129Z,8.00
2018-05-12T02:26:55.083Z,8.00
2018-05-12T02:29:22.953Z,8.00
2018-05-12T02:31:51.661Z,7.90
2018-05-12T02:34:19.562Z,7.80
2018-05-12T02:36:47.516Z,7.90
2018-05-12T02:39:15.435Z,7.90
2018-05-12T02:41:44.162Z,7.80
2018-05-12T02:44:12.044Z,7.80
2018-05-12T02:46:40.018Z,7.70
2018-05-12T02:49:07.921Z,7.50
2018-05-12T02:51:35.879Z,7.40
2018-05-12T02:54:03.786Z,7.40
2018-05-12T02:56:32.501Z,7.30
2018-05-12T02:59:00.395Z,7.30
2018-05-12T03:01:28.295Z,7.20
2018-05-12T03:03:56.239Z,7.10
2018-05-12T03:06:24.134Z,7.10
2018-05-12T03:08:52.100Z,7.00
2018-05-12T03:11:20.774Z,7.00
2018-05-12T03:13:48.724Z,7.00
2018-05-12T03:16:16.641Z,7.00
2018-05-12T03:18:45.339Z,7.00
2018-05-12T03:21:13.231Z,7.00
2018-05-12T03:23:41.172Z,6.90
2018-05-12T03:26:09.842Z,6.70
2018-05-12T03:28:38.592Z,6.70
2018-05-12T03:31:06.509Z,6.70
2018-05-12T03:33:35.210Z,6.70
2018-05-12T03:36:03.094Z,6.70
2018-05-12T03:38:31.032Z,6.70
2018-05-12T03:40:59.684Z,6.70
2018-05-12T03:43:27.624Z,6.60
2018-05-12T03:45:55.514Z,6.70
2018-05-12T03:48:23.462Z,6.80
2018-05-12T03:50:51.352Z,6.80
2018-05-12T03:53:19.266Z,6.80
2018-05-12T03:55:47.985Z,6.70
2018-05-12T03:58:15.882Z,6.70
2018-05-12T04:00:43.852Z,6.80
2018-05-12T04:03:11.765Z,6.70
2018-05-12T04:05:52.354Z,6.80
2018-05-12T04:08:31.919Z,6.80
2018-05-12T04:11:12.539Z,6.80
2018-05-12T04:13:41.208Z,7.00
2018-05-12T04:16:09.159Z,6.90
2018-05-12T04:18:37.142Z,6.90
2018-05-12T04:21:05.074Z,7.00
2018-05-12T04:23:32.996Z,7.10
2018-05-12T04:26:01.714Z,7.30
2018-05-12T04:28:29.625Z,7.30
2018-05-12T04:30:57.599Z,7.40
2018-05-12T04:33:25.502Z,7.60
2018-05-12T04:35:53.455Z,7.60
2018-05-12T04:38:21.359Z,7.70
2018-05-12T04:40:49.330Z,7.80
2018-05-12T04:43:17.267Z,8.10
2018-05-12T04:45:46.000Z,8.50
2018-05-12T04:48:13.915Z,8.40
2018-05-12T04:50:41.873Z,8.60
2018-05-12T04:53:09.774Z,8.70
2018-05-12T04:55:38.504Z,8.90
2018-05-12T04:58:06.404Z,8.90
2018-05-12T05:00:34.353Z,8.90
2018-05-12T05:03:02.292Z,9.00
2018-05-12T05:05:30.262Z,9.00
2018-05-12T05:07:58.161Z,9.30
2018-05-12T05:10:26.104Z,9.90
2018-05-12T05:12:54.060Z,10.30
2018-05-12T05:15:22.039Z,10.80
2018-05-12T05:17:49.980Z,11.20
2018-05-12T05:20:18.647Z,12.60
2018-05-12T05:22:46.620Z,12.60
2018-05-12T05:25:14.538Z,13.40
2018-05-12T05:27:42.507Z,14.20
2018-05-12T05:30:10.429Z,14.80
2018-05-12T05:32:38.393Z,15.00
2018-05-12T05:35:06.454Z,15.50
2018-05-12T05:37:39.792Z,16.50
2018-05-12T05:40:11.993Z,16.50
2018-05-12T05:42:44.657Z,17.20
2018-05-12T05:45:16.316Z,17.20
2018-05-12T05:47:50.089Z,17.10
2018-05-12T05:50:21.645Z,17.10
2018-05-12T05:52:50.694Z,18.50
2018-05-12T05:55:18.621Z,18.50
2018-05-12T05:57:46.631Z,18.90
2018-05-12T06:00:14.621Z,19.50
2018-05-12T06:02:42.611Z,19.90
2018-05-12T06:05:10.509Z,20.10
2018-05-12T06:07:39.234Z,19.70
2018-05-12T06:10:07.149Z,19.70
2018-05-12T06:12:35.137Z,20.10
2018-05-12T06:15:03.860Z,21.30
2018-05-12T06:17:31.776Z,21.20
2018-05-12T06:19:59.728Z,21.90
2018-05-12T06:22:27.630Z,22.30
2018-05-12T06:24:56.385Z,22.90
2018-05-12T06:27:24.322Z,22.90
2018-05-12T06:29:52.274Z,23.40
2018-05-12T06:32:20.170Z,24.20
2018-05-12T06:34:48.117Z,24.20
2018-05-12T06:37:16.010Z,24.80
2018-05-12T06:39:43.967Z,25.10
2018-05-12T06:42:11.883Z,24.60
2018-05-12T06:44:39.849Z,24.50
2018-05-12T06:47:07.778Z,24.50
2018-05-12T06:49:35.746Z,25.40
2018-05-12T06:52:03.648Z,26.30
2018-05-12T06:54:31.600Z,26.60
2018-05-12T06:56:59.496Z,25.90
2018-05-12T06:59:28.684Z,26.00
2018-05-12T07:01:56.677Z,26.10
2018-05-12T07:04:27.714Z,26.30
2018-05-12T07:06:57.924Z,26.20
2018-05-12T07:09:27.121Z,26.20
2018-05-12T07:11:56.929Z,26.60
2018-05-12T07:14:28.908Z,27.50
2018-05-12T07:16:59.380Z,27.40
2018-05-12T07:19:31.324Z,27.40
2018-05-12T07:22:01.684Z,27.40
2018-05-12T07:24:33.251Z,27.10
2018-05-12T07:27:04.325Z,26.70
2018-05-12T07:29:33.219Z,26.80
2018-05-12T07:32:01.182Z,26.80
2018-05-12T07:34:29.070Z,27.10
2018-05-12T07:36:57.794Z,27.20
2018-05-12T07:39:25.664Z,27.10
2018-05-12T07:41:53.673Z,28.30
2018-05-12T07:44:21.561Z,29.30
2018-05-12T07:46:52.718Z,29.00
2018-05-12T07:49:21.638Z,30.20
2018-05-12T07:51:49.600Z,30.10
2018-05-12T07:54:17.476Z,29.50
2018-05-12T07:56:45.425Z,30.60
2018-05-12T07:59:14.189Z,30.70
2018-05-12T08:01:42.138Z,30.70
2018-05-12T08:04:10.032Z,31.40
2018-05-12T08:06:37.990Z,31.50
2018-05-12T08:09:05.893Z,32.20
2018-05-12T08:11:34.616Z,33.10
2018-05-12T08:14:02.529Z,33.10
2018-05-12T08:16:30.494Z,33.30
2018-05-12T08:18:58.414Z,32.60
2018-05-12T08:21:26.379Z,32.30
2018-05-12T08:23:54.314Z,33.00
2018-05-12T08:26:23.162Z,33.00
2018-05-12T08:28:51.065Z,32.90
2018-05-12T08:31:19.028Z,33.10
2018-05-12T08:33:46.941Z,34.20
2018-05-12T08:36:14.905Z,34.00
2018-05-12T08:38:42.816Z,34.20
2018-05-12T08:41:10.761Z,33.60
2018-05-12T08:43:38.677Z,33.00
2018-05-12T08:46:06.653Z,33.80
2018-05-12T08:48:34.547Z,33.30
2018-05-12T08:51:03.269Z,32.30
2018-05-12T08:53:31.169Z,32.20
2018-05-12T08:55:59.138Z,30.80
2018-05-12T08:58:27.061Z,30.80
2018-05-12T09:00:55.043Z,31.00
2018-05-12T09:03:22.932Z,31.80
2018-05-12T09:05:50.900Z,31.30
2018-05-12T09:08:18.794Z,31.40
2018-05-12T09:10:46.742Z,32.40
2018-05-12T09:13:14.646Z,33.60
2018-05-12T09:15:43.366Z,32.60
2018-05-12T09:18:14.745Z,32.50
2018-05-12T09:20:46.236Z,32.70
2018-05-12T09:23:18.213Z,32.00
2018-05-12T09:25:48.101Z,32.40
2018-05-12T09:28:17.105Z,31.80
2018-05-12T09:30:45.108Z,30.90
2018-05-12T09:33:12.993Z,31.90
2018-05-12T09:35:40.948Z,32.70
2018-05-12T09:38:08.855Z,32.80
2018-05-12T09:40:36.796Z,32.80
2018-05-12T09:43:04.689Z,32.80
2018-05-12T09:45:32.748Z,32.10
2018-05-12T09:48:00.636Z,31.90
2018-05-12T09:50:28.645Z,31.90
2018-05-12T09:52:57.323Z,32.80
2018-05-12T09:55:26.037Z,31.70
2018-05-12T09:57:53.957Z,31.60
2018-05-12T10:00:25.873Z,32.80
2018-05-12T10:02:53.761Z,33.70
2018-05-12T10:05:21.708Z,34.00
2018-05-12T10:07:49.593Z,33.10
2018-05-12T10:10:17.605Z,33.50
2018-05-12T10:12:45.508Z,34.60
2018-05-12T10:15:13.447Z,34.60
2018-05-12T10:17:41.407Z,34.50
2018-05-12T10:20:09.294Z,34.90
2018-05-12T10:22:37.307Z,35.10
2018-05-12T10:25:05.984Z,32.00
2018-05-12T10:27:33.951Z,31.90
2018-05-12T10:30:01.838Z,33.40
2018-05-12T10:32:29.785Z,33.10
2018-05-12T10:34:59.058Z,32.90
2018-05-12T10:37:27.165Z,32.80
2018-05-12T10:39:55.069Z,32.80
2018-05-12T10:42:24.289Z,33.90
2018-05-12T10:44:53.176Z,34.80
2018-05-12T10:47:21.298Z,34.20
2018-05-12T10:49:52.456Z,34.20
2018-05-12T10:52:20.648Z,34.20
2018-05-12T10:54:48.546Z,33.80
2018-05-12T10:57:16.489Z,32.90
2018-05-12T10:59:44.377Z,32.20
2018-05-12T11:02:12.427Z,32.00
2018-05-12T11:04:40.320Z,31.80
2018-05-12T11:07:08.278Z,31.50
2018-05-12T11:09:36.266Z,31.50
2018-05-12T11:12:04.219Z,32.10
2018-05-12T11:14:32.129Z,31.80
2018-05-12T11:17:00.980Z,29.50
2018-05-12T11:19:28.873Z,29.40
2018-05-12T11:21:56.948Z,28.60
2018-05-12T11:24:24.755Z,29.90
2018-05-12T11:26:52.700Z,30.40
2018-05-12T11:29:21.352Z,31.40
2018-05-12T11:31:49.318Z,31.40
2018-05-12T11:34:17.221Z,31.30
2018-05-12T11:36:45.935Z,31.70
2018-05-12T11:39:13.830Z,31.70
2018-05-12T11:41:41.772Z,31.80
2018-05-12T11:44:09.673Z,32.20
2018-05-12T11:46:37.705Z,31.20
2018-05-12T11:49:05.596Z,31.40
2018-05-12T11:51:33.549Z,31.40
2018-05-12T11:54:01.512Z,31.50
2018-05-12T11:56:30.193Z,32.00
2018-05-12T11:58:58.861Z,31.60
2018-05-12T12:01:27.579Z,32.20
2018-05-12T12:03:55.461Z,32.20
2018-05-12T12:06:23.405Z,31.90
2018-05-12T12:08:52.061Z,31.10
2018-05-12T12:11:19.995Z,31.10
2018-05-12T12:13:47.885Z,30.80
2018-05-12T12:16:15.912Z,31.10
2018-05-12T12:18:43.840Z,30.50
2018-05-12T12:21:11.847Z,30.30
2018-05-12T12:23:39.773Z,29.50
2018-05-12T12:26:07.732Z,30.60
2018-05-12T12:28:35.623Z,30.90
2018-05-12T12:31:03.580Z,30.90
2018-05-12T12:33:31.482Z,31.20
2018-05-12T12:36:00.207Z,30.90
2018-05-12T12:38:28.111Z,30.80
2018-05-12T12:40:56.092Z,30.00
2018-05-12T12:43:24.058Z,30.00
2018-05-12T12:45:52.018Z,30.20
2018-05-12T12:48:19.984Z,30.60
2018-05-12T12:50:47.888Z,30.50
2018-05-12T12:53:16.593Z,30.70
2018-05-12T12:55:44.505Z,30.70
2018-05-12T12:58:12.468Z,29.60
2018-05-12T13:00:40.391Z,29.20
2018-05-12T13:03:09.112Z,29.30
2018-05-12T13:05:37.025Z,29.30
2018-05-12T13:08:05.005Z,29.40
2018-05-12T13:10:33.686Z,28.00
2018-05-12T13:13:02.430Z,27.90
2018-05-12T13:15:30.341Z,27.90
2018-05-12T13:17:58.330Z,28.00
2018-05-12T13:20:27.012Z,27.80
2018-05-12T13:22:55.748Z,28.10
2018-05-12T13:25:23.658Z,28.10
2018-05-12T13:27:52.518Z,28.30
2018-05-12T13:30:20.401Z,28.20
2018-05-12T13:32:48.354Z,27.90
2018-05-12T13:35:16.753Z,27.80
2018-05-12T13:37:44.766Z,27.70
2018-05-12T13:40:12.710Z,27.60
2018-05-12T13:42:40.738Z,27.60
2018-05-12T13:45:08.651Z,27.30
2018-05-12T13:47:36.627Z,27.20
2018-05-12T13:50:04.544Z,27.00
2018-05-12T13:52:32.516Z,27.00
2018-05-12T13:55:00.404Z,26.90
2018-05-12T13:57:28.393Z,27.10
2018-05-12T13:59:56.396Z,27.10
2018-05-12T14:02:24.369Z,26.90
2018-05-12T14:04:52.307Z,26.80
2018-05-12T14:07:20.356Z,26.90
2018-05-12T14:09:48.263Z,27.10
2018-05-12T14:12:17.040Z,26.30
2018-05-12T14:14:44.967Z,26.30
2018-05-12T14:17:12.936Z,26.50
2018-05-12T14:19:40.821Z,26.70
2018-05-12T14:22:08.812Z,26.30
2018-05-12T14:24:36.708Z,26.30
2018-05-12T14:27:05.426Z,26.60
2018-05-12T14:29:33.329Z,26.50
2018-05-12T14:32:01.321Z,26.50
2018-05-12T14:34:29.209Z,26.40
2018-05-12T14:36:57.160Z,26.60
2018-05-12T14:39:25.832Z,26.70
2018-05-12T14:41:53.803Z,26.70
2018-05-12T14:44:21.694Z,26.40
2018-05-12T14:46:50.405Z,26.40
2018-05-12T14:49:18.309Z,26.50
2018-05-12T14:51:46.413Z,26.60
2018-05-12T14:54:15.073Z,26.20
2018-05-12T14:56:42.969Z,26.20
2018-05-12T14:59:11.680Z,25.90
2018-05-12T15:01:39.578Z,25.90
2018-05-12T15:04:07.553Z,25.70
2018-05-12T15:06:35.441Z,25.70
2018-05-12T15:09:03.490Z,25.90
2018-05-12T15:11:31.378Z,26.00
2018-05-12T15:13:59.332Z,26.00
2018-05-12T15:16:27.232Z,26.10
2018-05-12T15:18:55.185Z,26.10
2018-05-12T15:21:23.169Z,26.10
2018-05-12T15:23:51.081Z,25.90
2018-05-12T15:26:18.961Z,25.70
2018-05-12T15:28:46.909Z,25.60
2018-05-12T15:31:14.797Z,25.50
2018-05-12T15:33:42.729Z,25.50
2018-05-12T15:36:10.753Z,25.40
2018-05-12T15:38:39.417Z,25.00
2018-05-12T15:41:07.353Z,25.00
2018-05-12T15:43:36.066Z,25.00
2018-05-12T15:46:04.034Z,25.00
2018-05-12T15:48:32.673Z,24.70
2018-05-12T15:51:00.617Z,24.70
2018-05-12T15:53:28.507Z,24.40
2018-05-12T15:55:56.457Z,24.60
2018-05-12T15:58:24.355Z,24.60
2018-05-12T16:00:52.297Z,24.60
2018-05-12T16:03:20.205Z,24.80
2018-05-12T16:05:49.526Z,24.90
2018-05-12T16:08:18.190Z,24.60
2018-05-12T16:10:46.146Z,24.60
2018-05-12T16:13:14.055Z,24.50
2018-05-12T16:15:42.802Z,24.10
2018-05-12T16:18:10.696Z,24.20
2018-05-12T16:20:38.665Z,24.20
2018-05-12T16:23:06.592Z,24.20
2018-05-12T16:25:34.478Z,24.20
2018-05-12T16:28:03.069Z,24.10
2018-05-12T16:30:31.001Z,24.00
2018-05-12T16:32:58.948Z,24.00
2018-05-12T16:35:27.605Z,23.90
2018-05-12T16:37:55.557Z,23.80
2018-05-12T16:40:23.453Z,23.90
2018-05-12T16:42:51.392Z,23.80
2018-05-12T16:45:19.273Z,23.70
2018-05-12T16:47:47.230Z,23.70
2018-05-12T16:50:15.166Z,23.80
2018-05-12T16:52:43.130Z,23.80
2018-05-12T16:55:12.600Z,23.70
2018-05-12T16:57:42.548Z,23.70
2018-05-12T17:00:12.700Z,23.60
2018-05-12T17:02:40.794Z,23.60
2018-05-12T17:05:08.726Z,23.60
2018-05-12T17:07:36.675Z,23.50
2018-05-12T17:10:05.335Z,23.40
2018-05-12T17:12:33.282Z,23.40
2018-05-12T17:15:01.185Z,23.50
2018-05-12T17:17:29.937Z,23.50
2018-05-12T17:19:57.852Z,23.50
2018-05-12T17:22:26.585Z,23.40
2018-05-12T17:24:54.537Z,23.40
2018-05-12T17:27:22.513Z,23.20
2018-05-12T17:29:50.425Z,23.10
2018-05-12T17:32:18.392Z,23.10
2018-05-12T17:34:46.294Z,23.10
2018-05-12T17:37:15.032Z,23.10
2018-05-12T17:39:42.955Z,23.10
2018-05-12T17:42:11.665Z,22.90
2018-05-12T17:44:39.561Z,22.80
2018-05-12T17:47:07.564Z,22.80
2018-05-12T17:49:35.481Z,22.70
2018-05-12T17:52:03.460Z,22.50
2018-05-12T17:54:31.366Z,22.40
2018-05-12T17:56:59.286Z,22.20
2018-05-12T17:59:27.255Z,22.10
2018-05-12T18:02:00.941Z,22.00
2018-05-12T18:04:29.206Z,22.00
2018-05-12T18:06:57.892Z,21.70
2018-05-12T18:09:26.663Z,21.70
2018-05-12T18:11:54.586Z,21.60
2018-05-12T18:14:22.593Z,21.60
2018-05-12T18:16:50.514Z,21.30
2018-05-12T18:19:18.475Z,21.10
2018-05-12T18:21:46.377Z,21.00
2018-05-12T18:24:14.401Z,21.00
2018-05-12T18:26:43.081Z,20.80
2018-05-12T18:29:11.808Z,20.60
2018-05-12T18:31:39.714Z,20.60
2018-05-12T18:34:07.697Z,20.40
2018-05-12T18:36:35.655Z,20.30
2018-05-12T18:39:03.727Z,20.20
2018-05-12T18:41:31.641Z,20.00
2018-05-12T18:43:59.632Z,19.90
2018-05-12T18:46:27.551Z,19.70
2018-05-12T18:48:55.533Z,19.60
2018-05-12T18:51:24.211Z,19.30
2018-05-12T18:53:52.946Z,19.20
2018-05-12T18:56:20.854Z,19.20
2018-05-12T18:58:51.381Z,19.10
2018-05-12T19:01:20.204Z,19.00
2018-05-12T19:03:49.290Z,18.70
2018-05-12T19:06:20.958Z,18.50
2018-05-12T19:08:50.616Z,18.40
2018-05-12T19:11:19.566Z,18.30
2018-05-12T19:13:49.269Z,18.10
2018-05-12T19:16:18.051Z,17.90
2018-05-12T19:18:46.621Z,17.90
2018-05-12T19:21:14.630Z,17.80
2018-05-12T19:23:44.370Z,17.70
2018-05-12T19:26:13.463Z,17.60
2018-05-12T19:28:42.012Z,17.50
2018-05-12T19:31:09.965Z,17.40
2018-05-12T19:33:38.013Z,17.30
2018-05-12T19:36:07.073Z,17.20
2018-05-12T19:38:35.438Z,17.10
2018-05-12T19:41:03.561Z,17.00
2018-05-12T19:43:32.885Z,17.00
2018-05-12T19:46:01.236Z,17.00
2018-05-12T19:48:30.405Z,16.90
2018-05-12T19:50:59.347Z,16.80
2018-05-12T19:53:30.844Z,16.70
2018-05-12T19:56:03.912Z,16.70
2018-05-12T19:58:34.890Z,16.50
2018-05-12T20:01:03.713Z,16.50
2018-05-12T20:03:32.176Z,16.40
2018-05-12T20:06:01.119Z,16.30
2018-05-12T20:08:29.159Z,16.30
2018-05-12T20:10:57.063Z,16.30
2018-05-12T20:13:25.793Z,16.10
2018-05-12T20:15:53.723Z,16.10
2018-05-12T20:18:22.449Z,16.00
2018-05-12T20:20:50.401Z,15.90
2018-05-12T20:23:18.384Z,15.90
2018-05-12T20:25:46.400Z,15.90
2018-05-12T20:28:14.314Z,15.80
2018-05-12T20:30:42.228Z,15.80
2018-05-12T20:33:11.104Z,15.70
2018-05-12T20:35:39.061Z,15.70
2018-05-12T20:38:07.032Z,15.70
2018-05-12T20:40:34.933Z,15.60
2018-05-12T20:43:02.918Z,15.50
2018-05-12T20:45:37.395Z,15.40
2018-05-12T20:48:05.599Z,15.40
2018-05-12T20:50:33.532Z,15.40
2018-05-12T20:53:02.348Z,15.30
2018-05-12T20:55:30.297Z,15.20
2018-05-12T20:57:58.264Z,15.30
2018-05-12T21:00:26.181Z,15.20
2018-05-12T21:02:54.943Z,15.20
2018-05-12T21:05:22.850Z,15.20
2018-05-12T21:07:51.603Z,15.10
2018-05-12T21:10:19.533Z,15.00
2018-05-12T21:12:47.446Z,15.00
2018-05-12T21:15:15.947Z,14.90
2018-05-12T21:17:43.964Z,14.90
2018-05-12T21:20:11.982Z,14.90
2018-05-12T21:22:39.895Z,14.80
2018-05-12T21:25:07.857Z,14.80
2018-05-12T21:27:35.761Z,14.70
2018-05-12T21:30:03.789Z,14.60
2018-05-12T21:32:32.487Z,14.60
2018-05-12T21:35:00.585Z,14.60
2018-05-12T21:37:28.541Z,14.60
2018-05-12T21:39:56.517Z,14.50
2018-05-12T21:42:24.437Z,14.40
2018-05-12T21:44:52.815Z,14.30
2018-05-12T21:47:20.743Z,14.30
2018-05-12T21:49:48.689Z,14.30
2018-05-12T21:52:16.618Z,14.20
2018-05-12T21:54:44.580Z,14.20
2018-05-12T21:57:12.487Z,14.00
2018-05-12T21:59:41.268Z,13.90
2018-05-12T22:02:09.938Z,13.90
2018-05-12T22:04:38.961Z,13.80
2018-05-12T22:07:06.889Z,13.80
2018-05-12T22:09:36.010Z,13.80
2018-05-12T22:12:04.685Z,13.60
2018-05-12T22:14:32.725Z,13.60
2018-05-12T22:17:00.636Z,13.70
2018-05-12T22:19:29.377Z,13.60
2018-05-12T22:21:57.326Z,13.60
2018-05-12T22:24:25.365Z,13.60
2018-05-12T22:26:53.784Z,13.60
2018-05-12T22:29:21.714Z,13.50
2018-05-12T22:31:49.693Z,13.40
2018-05-12T22:34:17.627Z,13.40
2018-05-12T22:36:45.615Z,13.40
2018-05-12T22:39:13.554Z,13.40
2018-05-12T22:41:41.527Z,13.50
2018-05-12T22:44:09.461Z,13.40
2018-05-12T22:46:37.433Z,13.40
2018-05-12T22:49:05.364Z,13.40
2018-05-12T22:51:33.341Z,13.30
2018-05-12T22:54:01.281Z,13.30
2018-05-12T22:56:29.337Z,13.30
2018-05-12T22:58:57.382Z,13.30
2018-05-12T23:01:26.325Z,13.30
2018-05-12T23:03:54.250Z,13.20
2018-05-12T23:06:22.229Z,13.20
2018-05-12T23:08:50.145Z,13.20
2018-05-12T23:11:18.594Z,13.20
2018-05-12T23:13:46.513Z,13.20
2018-05-12T23:16:14.497Z,13.20
2018-05-12T23:18:43.191Z,13.10
2018-05-12T23:21:11.887Z,13.20
2018-05-12T23:23:39.871Z,13.20
2018-05-12T23:26:07.823Z,13.30
2018-05-12T23:28:35.813Z,13.30
2018-05-12T23:31:03.759Z,13.30
2018-05-12T23:33:32.590Z,13.40
2018-05-12T23:36:00.514Z,13.30
2018-05-12T23:38:29.250Z,13.30
2018-05-12T23:40:57.223Z,13.30
2018-05-12T23:43:25.198Z,13.30
2018-05-12T23:45:53.102Z,13.40
2018-05-12T23:48:21.844Z,13.40
2018-05-12T23:50:49.768Z,13.40
2018-05-12T23:53:18.523Z,13.30
2018-05-12T23:55:46.468Z,13.30
2018-05-12T23:58:14.458Z,13.40
